Aviation Digital Data Service (ADDS)

Output produced by METARs form (2240 UTC 30 July 2016)
found at http://aviationweather.gov/adds/metars/
 
KLGA 302035Z 3021/3118 15008KT 6SM SHRA BR BKN035 
     FM310100 15007KT P6SM SCT025 OVC050 
     TEMPO 3101/3104 4SM SHRA OVC025 
     FM310400 12007KT P6SM OVC025 
     FM310800 10009KT 4SM SHRA BR OVC015 
     FM311600 09012KT 5SM -SHRA BR SCT015 OVC025